Terminal Aerodrome Forecast
Issued by NWS

Current Version | Previous Version | Text Only | Print | Product List | Glossary Off
Versions: 1 2 3 4 5 6 7 8 9 10 11 12 13 14 15 16 17 18

000
FTUS41 KILN 221100
TAFLUK
TAF
KLUK 221133Z 2212/2312 24005KT P6SM OVC060
     FM221300 29010KT P6SM SCT018
      TEMPO 2213/2215 BKN018
     FM221500 30014KT P6SM SCT028
     FM221700 32015G22KT P6SM FEW045
     FM230000 33008KT P6SM SKC=

USA.gov is the U.S. government's official web portal to all federal, state and local government web resources and services.